createdAt,value
2018-07-04T00:01:00.858Z,1.27
2018-07-04T00:03:40.519Z,1.10
2018-07-04T00:06:20.183Z,1.70
2018-07-04T00:08:59.754Z,1.60
2018-07-04T00:11:39.425Z,1.40
2018-07-04T00:14:19.014Z,1.60
2018-07-04T00:16:58.560Z,1.60
2018-07-04T00:19:38.159Z,1.47
2018-07-04T00:22:17.758Z,1.57
2018-07-04T00:24:57.306Z,1.40
2018-07-04T00:27:36.919Z,1.23
2018-07-04T00:30:17.058Z,1.40
2018-07-04T00:32:56.678Z,1.57
2018-07-04T00:35:36.479Z,1.40
2018-07-04T00:38:16.127Z,1.23
2018-07-04T00:40:55.787Z,1.10
2018-07-04T00:43:35.408Z,1.33
2018-07-04T00:46:15.214Z,1.50
2018-07-04T00:48:54.839Z,1.60
2018-07-04T00:51:34.477Z,1.40
2018-07-04T00:54:08.126Z,1.30
2018-07-04T00:56:47.792Z,1.63
2018-07-04T00:59:27.464Z,1.20
2018-07-04T01:02:07.112Z,1.60
2018-07-04T01:04:46.732Z,1.40
2018-07-04T01:07:26.529Z,1.80
2018-07-04T01:10:06.376Z,1.33
2018-07-04T01:12:45.990Z,1.33
2018-07-04T01:15:25.663Z,1.50
2018-07-04T01:18:05.167Z,1.40
2018-07-04T01:20:50.045Z,1.67
2018-07-04T01:23:29.808Z,1.60
2018-07-04T01:26:09.332Z,1.70
2018-07-04T01:28:50.028Z,1.33
2018-07-04T01:31:29.652Z,1.50
2018-07-04T01:34:09.966Z,1.60
2018-07-04T01:36:49.719Z,1.47
2018-07-04T01:39:23.360Z,1.50
2018-07-04T01:42:03.476Z,1.80
2018-07-04T01:44:37.342Z,1.60
2018-07-04T01:47:17.107Z,2.67
2018-07-04T01:49:56.745Z,1.50
2018-07-04T01:52:36.485Z,1.50
2018-07-04T01:55:16.050Z,1.20
2018-07-04T01:57:49.697Z,1.30
2018-07-04T02:00:29.499Z,1.53
2018-07-04T02:03:09.298Z,1.53
2018-07-04T02:05:48.985Z,1.40
2018-07-04T02:08:28.697Z,1.50
2018-07-04T02:11:08.451Z,1.40
2018-07-04T02:13:48.088Z,1.43
2018-07-04T02:16:27.722Z,1.60
2018-07-04T02:19:07.302Z,1.80
2018-07-04T02:21:46.882Z,1.40
2018-07-04T02:24:26.424Z,1.87
2018-07-04T02:27:06.172Z,1.50
2018-07-04T02:29:45.879Z,1.60
2018-07-04T02:32:25.476Z,1.57
2018-07-04T02:35:05.134Z,1.67
2018-07-04T02:37:44.888Z,1.60
2018-07-04T02:40:24.459Z,1.27
2018-07-04T02:43:03.923Z,1.60
2018-07-04T02:45:43.579Z,1.80
2018-07-04T02:48:23.396Z,1.50
2018-07-04T02:51:02.873Z,1.57
2018-07-04T02:53:42.348Z,1.40
2018-07-04T02:56:21.861Z,1.60
2018-07-04T02:59:01.587Z,1.47
2018-07-04T03:01:41.204Z,1.80
2018-07-04T03:04:20.865Z,1.50
2018-07-04T03:07:00.662Z,1.60
2018-07-04T03:09:40.356Z,1.73
2018-07-04T03:12:20.031Z,1.50
2018-07-04T03:14:53.586Z,1.53
2018-07-04T03:17:33.513Z,1.60
2018-07-04T03:20:13.106Z,1.60
2018-07-04T03:22:52.666Z,1.73
2018-07-04T03:25:26.334Z,1.77
2018-07-04T03:28:06.007Z,1.80
2018-07-04T03:30:39.661Z,1.70
2018-07-04T03:33:19.392Z,1.90
2018-07-04T03:35:59.000Z,1.40
2018-07-04T03:38:38.730Z,1.90
2018-07-04T03:41:18.322Z,1.70
2018-07-04T03:43:57.856Z,1.67
2018-07-04T03:46:37.499Z,1.50
2018-07-04T03:49:17.645Z,1.50
2018-07-04T03:51:57.279Z,1.60
2018-07-04T03:54:36.912Z,1.67
2018-07-04T03:57:16.484Z,1.43
2018-07-04T03:59:56.200Z,1.77
2018-07-04T04:02:35.747Z,1.77
2018-07-04T04:05:15.444Z,1.80
2018-07-04T04:07:54.983Z,1.60
2018-07-04T04:10:34.724Z,1.70
2018-07-04T04:13:14.516Z,2.17
2018-07-04T04:15:54.251Z,1.77
2018-07-04T04:18:33.866Z,1.90
2018-07-04T04:21:13.547Z,1.67
2018-07-04T04:23:53.407Z,1.60
2018-07-04T04:26:32.915Z,1.70
2018-07-04T04:29:12.583Z,1.53
2018-07-04T04:31:52.054Z,1.47
2018-07-04T04:34:31.691Z,1.63
2018-07-04T04:37:11.365Z,1.57
2018-07-04T04:39:51.008Z,1.63
2018-07-04T04:42:30.621Z,1.90
2018-07-04T04:45:10.216Z,1.67
2018-07-04T04:47:49.818Z,1.40
2018-07-04T04:50:30.117Z,1.40
2018-07-04T04:53:10.159Z,1.60
2018-07-04T04:55:49.950Z,1.50
2018-07-04T04:58:29.540Z,1.53
2018-07-04T05:01:09.141Z,1.70
2018-07-04T05:03:48.712Z,1.53
2018-07-04T05:06:28.279Z,1.93
2018-07-04T05:09:07.886Z,1.70
2018-07-04T05:11:41.488Z,1.90
2018-07-04T05:14:15.270Z,1.90
2018-07-04T05:16:55.031Z,1.70
2018-07-04T05:19:28.609Z,1.93
2018-07-04T05:22:08.147Z,2.10
2018-07-04T05:24:47.849Z,1.97
2018-07-04T05:27:27.683Z,2.00
2018-07-04T05:30:07.326Z,1.60
2018-07-04T05:32:47.016Z,1.77
2018-07-04T05:35:26.532Z,1.53
2018-07-04T05:38:06.147Z,1.70
2018-07-04T05:40:45.758Z,1.70
2018-07-04T05:43:25.248Z,1.80
2018-07-04T05:46:04.876Z,1.83
2018-07-04T05:48:44.490Z,1.70
2018-07-04T05:51:24.084Z,1.30
2018-07-04T05:54:03.899Z,1.90
2018-07-04T05:56:43.494Z,1.50
2018-07-04T05:59:22.978Z,2.10
2018-07-04T06:02:02.657Z,1.90
2018-07-04T06:04:42.378Z,1.70
2018-07-04T06:07:22.108Z,1.60
2018-07-04T06:10:01.712Z,3.57
2018-07-04T06:12:41.258Z,1.90
2018-07-04T06:15:14.831Z,1.70
2018-07-04T06:17:54.434Z,1.80
2018-07-04T06:20:34.016Z,1.87
2018-07-04T06:23:13.715Z,2.00
2018-07-04T06:25:53.348Z,1.80
2018-07-04T06:28:32.869Z,2.00
2018-07-04T06:31:12.546Z,2.60
2018-07-04T06:33:52.256Z,2.40
2018-07-04T06:36:25.868Z,2.70
2018-07-04T06:38:53.432Z,2.70
2018-07-04T06:41:20.775Z,2.40
2018-07-04T06:43:48.112Z,2.60
2018-07-04T06:46:15.460Z,2.97
2018-07-04T06:48:42.775Z,2.77
2018-07-04T06:51:10.120Z,2.83
2018-07-04T06:53:37.427Z,3.10
2018-07-04T06:56:04.766Z,3.10
2018-07-04T06:58:32.073Z,3.00
2018-07-04T07:00:59.416Z,2.77
2018-07-04T07:03:39.038Z,2.90
2018-07-04T07:06:18.684Z,3.53
2018-07-04T07:08:58.318Z,2.60
2018-07-04T07:11:37.972Z,2.47
2018-07-04T07:14:17.619Z,3.03
2018-07-04T07:16:57.260Z,2.50
2018-07-04T07:19:36.790Z,2.97
2018-07-04T07:22:16.552Z,2.70
2018-07-04T07:24:56.102Z,2.63
2018-07-04T07:27:35.814Z,2.97
2018-07-04T07:30:15.493Z,2.50
2018-07-04T07:32:55.105Z,2.37
2018-07-04T07:35:34.656Z,2.80
2018-07-04T07:38:14.267Z,2.30
2018-07-04T07:40:53.891Z,2.70
2018-07-04T07:43:33.396Z,2.40
2018-07-04T07:46:13.024Z,2.57
2018-07-04T07:48:52.574Z,2.57
2018-07-04T07:51:32.165Z,2.20
2018-07-04T07:54:11.737Z,2.40
2018-07-04T07:56:51.304Z,2.30
2018-07-04T07:59:30.949Z,2.30
2018-07-04T08:02:10.534Z,2.22
2018-07-04T08:04:49.974Z,2.30
2018-07-04T08:07:29.569Z,1.98
2018-07-04T08:10:09.109Z,2.10
2018-07-04T08:12:48.755Z,1.70
2018-07-04T08:15:29.183Z,1.87
2018-07-04T08:18:08.854Z,1.80
2018-07-04T08:20:48.348Z,1.77
2018-07-04T08:23:27.802Z,1.80
2018-07-04T08:26:07.355Z,1.77
2018-07-04T08:28:47.039Z,1.80
2018-07-04T08:31:26.659Z,1.92
2018-07-04T08:34:06.178Z,2.30
2018-07-04T08:36:45.708Z,2.90
2018-07-04T08:39:25.428Z,2.15
2018-07-04T08:41:58.937Z,2.10
2018-07-04T08:44:38.696Z,2.22
2018-07-04T08:47:18.127Z,2.25
2018-07-04T08:49:57.778Z,1.87
2018-07-04T08:52:37.351Z,2.12
2018-07-04T08:55:17.024Z,1.92
2018-07-04T08:57:56.495Z,2.00
2018-07-04T09:00:36.215Z,2.02
2018-07-04T09:03:15.722Z,2.25
2018-07-04T09:05:55.632Z,2.60
2018-07-04T09:08:35.327Z,2.20
2018-07-04T09:11:14.955Z,2.33
2018-07-04T09:13:54.557Z,2.60
2018-07-04T09:16:34.107Z,2.62
2018-07-04T09:19:13.837Z,2.90
2018-07-04T09:21:53.291Z,2.70
2018-07-04T09:24:33.071Z,3.52
2018-07-04T09:27:12.779Z,3.35
2018-07-04T09:29:52.508Z,2.47
2018-07-04T09:32:32.108Z,2.30
2018-07-04T09:35:11.715Z,2.47
2018-07-04T09:37:51.224Z,2.37
2018-07-04T09:40:30.821Z,2.47
2018-07-04T09:43:10.503Z,2.30
2018-07-04T09:45:50.154Z,2.42
2018-07-04T09:48:29.684Z,2.22
2018-07-04T09:51:09.347Z,2.40
2018-07-04T09:53:49.196Z,2.50
2018-07-04T09:56:28.859Z,2.02
2018-07-04T09:59:08.581Z,2.10
2018-07-04T10:01:48.327Z,2.15
2018-07-04T10:04:27.962Z,1.90
2018-07-04T10:07:07.713Z,1.40
2018-07-04T10:09:47.311Z,1.65
2018-07-04T10:12:26.926Z,1.75
2018-07-04T10:15:06.592Z,1.85
2018-07-04T10:17:46.178Z,1.57
2018-07-04T10:20:26.008Z,1.75
2018-07-04T10:23:05.483Z,1.37
2018-07-04T10:25:44.979Z,1.77
2018-07-04T10:28:24.604Z,1.60
2018-07-04T10:31:04.247Z,1.20
2018-07-04T10:33:43.775Z,1.40
2018-07-04T10:36:23.406Z,2.05
2018-07-04T10:39:03.103Z,1.45
2018-07-04T10:41:42.817Z,1.40
2018-07-04T10:44:22.344Z,1.70
2018-07-04T10:47:02.108Z,1.30
2018-07-04T10:49:41.766Z,1.92
2018-07-04T10:52:21.304Z,1.80
2018-07-04T10:55:00.874Z,1.60
2018-07-04T10:57:40.487Z,1.50
2018-07-04T11:00:20.151Z,2.00
2018-07-04T11:02:59.817Z,1.32
2018-07-04T11:05:39.516Z,1.25
2018-07-04T11:08:19.116Z,1.10
2018-07-04T11:10:58.788Z,1.20
2018-07-04T11:13:38.381Z,1.40
2018-07-04T11:16:18.098Z,1.40
2018-07-04T11:18:57.746Z,1.50
2018-07-04T11:21:37.457Z,1.10
2018-07-04T11:24:17.048Z,1.40
2018-07-04T11:26:56.747Z,1.40
2018-07-04T11:29:36.392Z,1.32
2018-07-04T11:32:16.118Z,1.20
2018-07-04T11:34:55.654Z,1.27
2018-07-04T11:37:35.314Z,1.35
2018-07-04T11:40:14.971Z,1.20
2018-07-04T11:42:54.868Z,1.20
2018-07-04T11:45:34.660Z,1.20
2018-07-04T11:48:01.968Z,1.40
2018-07-04T11:50:29.309Z,1.37
2018-07-04T11:52:56.618Z,1.25
2018-07-04T11:55:23.958Z,1.45
2018-07-04T11:57:51.294Z,1.15
2018-07-04T12:00:18.631Z,1.35
2018-07-04T12:02:45.945Z,1.25
2018-07-04T12:05:25.790Z,1.25
2018-07-04T12:07:53.036Z,1.30
2018-07-04T12:10:20.374Z,1.57
2018-07-04T12:12:47.696Z,1.40
2018-07-04T12:15:15.048Z,1.12
2018-07-04T12:17:42.356Z,1.42
2018-07-04T12:20:09.699Z,1.60
2018-07-04T12:22:37.005Z,1.50
2018-07-04T12:25:04.342Z,1.27
2018-07-04T12:27:31.661Z,1.10
2018-07-04T12:29:58.967Z,1.20
2018-07-04T12:32:26.315Z,1.20
2018-07-04T12:34:53.621Z,1.50
2018-07-04T12:37:21.007Z,1.37
2018-07-04T12:39:48.306Z,1.27
2018-07-04T12:42:15.640Z,1.20
2018-07-04T12:44:42.948Z,1.22
2018-07-04T12:47:10.314Z,1.20
2018-07-04T12:49:37.624Z,1.10
2018-07-04T12:52:04.971Z,0.90
2018-07-04T12:54:37.581Z,1.20
2018-07-04T12:57:17.322Z,1.20
2018-07-04T12:59:56.871Z,1.20
2018-07-04T13:02:36.468Z,1.10
2018-07-04T13:05:16.034Z,1.40
2018-07-04T13:07:55.766Z,1.40
2018-07-04T13:10:35.451Z,1.10
2018-07-04T13:13:15.045Z,1.25
2018-07-04T13:15:54.636Z,1.10
2018-07-04T13:18:34.235Z,1.20
2018-07-04T13:21:13.901Z,1.92
2018-07-04T13:23:53.591Z,1.80
2018-07-04T13:26:33.162Z,1.00
2018-07-04T13:29:12.859Z,1.20
2018-07-04T13:31:52.642Z,1.30
2018-07-04T13:34:32.397Z,1.02
2018-07-04T13:37:11.860Z,1.32
2018-07-04T13:39:51.446Z,1.00
2018-07-04T13:42:31.112Z,1.35
2018-07-04T13:45:10.823Z,1.20
2018-07-04T13:47:50.400Z,1.12
2018-07-04T13:50:30.021Z,1.67
2018-07-04T13:53:09.497Z,1.65
2018-07-04T13:55:49.111Z,1.10
2018-07-04T13:58:28.708Z,1.32
2018-07-04T14:01:08.296Z,1.30
2018-07-04T14:03:47.904Z,1.25
2018-07-04T14:06:27.321Z,1.12
2018-07-04T14:09:07.080Z,1.00
2018-07-04T14:11:46.724Z,1.00
2018-07-04T14:14:26.511Z,1.02
2018-07-04T14:17:06.072Z,1.17
2018-07-04T14:19:45.820Z,1.05
2018-07-04T14:22:25.493Z,1.70
2018-07-04T14:25:05.170Z,1.07
2018-07-04T14:27:44.816Z,1.02
2018-07-04T14:30:24.443Z,1.22
2018-07-04T14:33:04.033Z,1.15
2018-07-04T14:35:43.981Z,1.20
2018-07-04T14:38:23.635Z,1.10
2018-07-04T14:41:03.291Z,1.47
2018-07-04T14:43:42.883Z,1.80
2018-07-04T14:46:22.527Z,1.52
2018-07-04T14:49:02.203Z,1.30
2018-07-04T14:51:41.792Z,1.17
2018-07-04T14:54:21.676Z,1.50
2018-07-04T14:57:01.595Z,1.50
2018-07-04T14:59:41.767Z,1.37
2018-07-04T15:02:21.525Z,1.30
2018-07-04T15:05:01.545Z,1.40
2018-07-04T15:07:35.191Z,1.80
2018-07-04T15:10:15.081Z,1.87
2018-07-04T15:12:55.077Z,1.80
2018-07-04T15:15:34.808Z,2.10
2018-07-04T15:18:14.380Z,2.10
2018-07-04T15:20:54.861Z,2.33
2018-07-04T15:23:34.440Z,2.47
2018-07-04T15:26:14.142Z,2.80
2018-07-04T15:28:53.706Z,2.45
2018-07-04T15:31:33.329Z,2.35
2018-07-04T15:34:13.104Z,2.40
2018-07-04T15:36:52.839Z,2.60
2018-07-04T15:39:32.640Z,2.65
2018-07-04T15:42:12.229Z,2.30
2018-07-04T15:44:51.878Z,2.45
2018-07-04T15:47:31.440Z,2.60
2018-07-04T15:50:11.045Z,2.40
2018-07-04T15:52:50.607Z,2.40
2018-07-04T15:55:30.407Z,2.45
2018-07-04T15:58:10.145Z,2.60
2018-07-04T16:00:50.168Z,2.30
2018-07-04T16:03:30.105Z,2.70
2018-07-04T16:06:09.992Z,2.27
2018-07-04T16:08:49.954Z,2.55
2018-07-04T16:11:29.787Z,2.27
2018-07-04T16:14:09.633Z,2.50
2018-07-04T16:16:49.178Z,2.50
2018-07-04T16:19:28.860Z,2.85
2018-07-04T16:22:08.428Z,2.40
2018-07-04T16:24:48.076Z,2.65
2018-07-04T16:27:27.744Z,2.47
2018-07-04T16:30:07.450Z,2.67
2018-07-04T16:32:47.127Z,3.33
2018-07-04T16:35:26.769Z,2.27
2018-07-04T16:38:06.256Z,2.22
2018-07-04T16:40:46.097Z,2.40
2018-07-04T16:43:25.873Z,2.40
2018-07-04T16:46:05.528Z,2.70
2018-07-04T16:48:45.942Z,2.50
2018-07-04T16:51:25.589Z,2.30
2018-07-04T16:54:05.299Z,2.37
2018-07-04T16:56:44.808Z,2.55
2018-07-04T16:59:24.417Z,2.47
2018-07-04T17:02:04.027Z,2.50
2018-07-04T17:04:43.547Z,2.60
2018-07-04T17:07:23.095Z,2.55
2018-07-04T17:10:02.733Z,2.90
2018-07-04T17:12:36.394Z,2.70
2018-07-04T17:15:15.968Z,2.95
2018-07-04T17:17:55.576Z,2.80
2018-07-04T17:20:35.376Z,3.42
2018-07-04T17:23:15.204Z,3.00
2018-07-04T17:25:54.855Z,2.80
2018-07-04T17:28:34.532Z,2.85
2018-07-04T17:31:14.752Z,2.55
2018-07-04T17:33:54.375Z,2.87
2018-07-04T17:36:33.867Z,2.40
2018-07-04T17:39:13.408Z,2.25
2018-07-04T17:41:53.212Z,2.67
2018-07-04T17:44:32.818Z,2.08
2018-07-04T17:47:12.456Z,1.98
2018-07-04T17:49:52.020Z,2.00
2018-07-04T17:52:31.724Z,2.10
2018-07-04T17:55:11.316Z,1.90
2018-07-04T17:57:50.890Z,2.00
2018-07-04T18:00:30.427Z,2.22
2018-07-04T18:03:10.067Z,2.10
2018-07-04T18:05:49.622Z,1.95
2018-07-04T18:08:29.203Z,2.10
2018-07-04T18:11:08.825Z,2.40
2018-07-04T18:13:48.412Z,2.30
2018-07-04T18:16:28.024Z,2.10
2018-07-04T18:19:07.588Z,1.98
2018-07-04T18:21:47.311Z,2.20
2018-07-04T18:24:26.856Z,2.10
2018-07-04T18:27:06.471Z,2.30
2018-07-04T18:29:46.050Z,2.27
2018-07-04T18:32:25.910Z,2.27
2018-07-04T18:35:05.584Z,2.40
2018-07-04T18:37:45.195Z,2.10
2018-07-04T18:40:25.059Z,2.20
2018-07-04T18:43:05.283Z,2.47
2018-07-04T18:45:45.035Z,2.30
2018-07-04T18:48:24.576Z,2.23
2018-07-04T18:51:04.256Z,2.30
2018-07-04T18:53:44.005Z,2.20
2018-07-04T18:56:23.724Z,2.40
2018-07-04T18:59:03.407Z,2.30
2018-07-04T19:01:43.316Z,2.37
2018-07-04T19:04:23.004Z,2.30
2018-07-04T19:07:02.545Z,2.03
2018-07-04T19:09:42.219Z,2.40
2018-07-04T19:12:22.161Z,2.67
2018-07-04T19:15:02.021Z,2.30
2018-07-04T19:17:42.019Z,2.37
2018-07-04T19:20:21.781Z,2.20
2018-07-04T19:22:55.614Z,2.33
2018-07-04T19:25:35.263Z,2.30
2018-07-04T19:28:15.011Z,2.57
2018-07-04T19:30:54.664Z,2.47
2018-07-04T19:33:34.428Z,2.60
2018-07-04T19:36:16.233Z,2.13
2018-07-04T19:38:55.943Z,2.77
2018-07-04T19:41:35.737Z,2.50
2018-07-04T19:44:15.447Z,2.50
2018-07-04T19:46:55.272Z,2.47
2018-07-04T19:49:35.056Z,2.80
2018-07-04T19:52:14.963Z,2.33
2018-07-04T19:54:54.624Z,2.63
2018-07-04T19:57:34.375Z,2.33
2018-07-04T20:00:14.639Z,2.57
2018-07-04T20:02:54.500Z,3.07
2018-07-04T20:05:34.220Z,2.70
2018-07-04T20:08:13.993Z,2.83
2018-07-04T20:10:53.687Z,2.50
2018-07-04T20:13:33.318Z,3.03
2018-07-04T20:16:12.949Z,2.93
2018-07-04T20:18:52.522Z,3.10
2018-07-04T20:21:32.188Z,2.90
2018-07-04T20:24:11.881Z,2.80
2018-07-04T20:26:51.593Z,2.97
2018-07-04T20:29:31.236Z,3.23
2018-07-04T20:32:11.001Z,3.10
2018-07-04T20:34:44.666Z,2.83
2018-07-04T20:37:24.395Z,3.10
2018-07-04T20:40:04.037Z,3.30
2018-07-04T20:42:43.637Z,2.93
2018-07-04T20:45:23.226Z,3.17
2018-07-04T20:48:02.813Z,3.30
2018-07-04T20:50:42.262Z,3.27
2018-07-04T20:53:21.856Z,3.40
2018-07-04T20:56:01.490Z,3.00
2018-07-04T20:58:40.995Z,3.20
2018-07-04T21:01:20.506Z,3.27
2018-07-04T21:04:00.111Z,3.27
2018-07-04T21:06:39.715Z,3.30
2018-07-04T21:09:19.588Z,3.17
2018-07-04T21:11:59.295Z,3.53
2018-07-04T21:14:39.100Z,3.70
2018-07-04T21:17:18.664Z,3.73
2018-07-04T21:19:58.269Z,3.33
2018-07-04T21:22:37.907Z,4.07
2018-07-04T21:25:17.523Z,3.53
2018-07-04T21:27:57.240Z,3.57
2018-07-04T21:30:36.788Z,3.43
2018-07-04T21:33:16.570Z,3.37
2018-07-04T21:35:56.028Z,3.40
2018-07-04T21:38:35.699Z,3.60
2018-07-04T21:41:15.201Z,3.67
2018-07-04T21:43:54.807Z,3.67
2018-07-04T21:46:34.336Z,3.50
2018-07-04T21:49:14.031Z,3.80
2018-07-04T21:51:53.567Z,3.53
2018-07-04T21:54:33.139Z,4.13
2018-07-04T21:57:12.648Z,4.07
2018-07-04T21:59:52.326Z,3.63
2018-07-04T22:02:33.185Z,3.60
2018-07-04T22:05:12.764Z,4.10
2018-07-04T22:07:52.227Z,4.50
2018-07-04T22:10:31.999Z,4.13
2018-07-04T22:13:12.044Z,3.90
2018-07-04T22:15:51.717Z,4.50
2018-07-04T22:18:31.342Z,4.10
2018-07-04T22:21:10.855Z,4.10
2018-07-04T22:23:50.464Z,4.40
2018-07-04T22:26:30.056Z,4.43
2018-07-04T22:29:10.024Z,3.83
2018-07-04T22:31:49.695Z,4.40
2018-07-04T22:34:29.575Z,4.40
2018-07-04T22:37:09.182Z,4.30
2018-07-04T22:39:48.837Z,4.23
2018-07-04T22:42:28.301Z,4.10
2018-07-04T22:45:07.901Z,5.63
2018-07-04T22:47:47.491Z,4.80
2018-07-04T22:50:27.217Z,4.73
2018-07-04T22:53:06.827Z,5.20
2018-07-04T22:55:46.478Z,5.00
2018-07-04T22:58:26.451Z,4.70
2018-07-04T23:01:06.082Z,4.97
2018-07-04T23:03:45.727Z,4.63
2018-07-04T23:06:25.174Z,5.40
2018-07-04T23:09:05.495Z,4.80
2018-07-04T23:11:45.383Z,5.40
2018-07-04T23:14:25.016Z,5.00
2018-07-04T23:17:04.664Z,5.00
2018-07-04T23:19:44.501Z,5.03
2018-07-04T23:22:24.000Z,5.03
2018-07-04T23:25:03.633Z,5.10
2018-07-04T23:27:43.332Z,5.10
2018-07-04T23:30:23.115Z,4.90
2018-07-04T23:33:02.745Z,5.40
2018-07-04T23:35:42.431Z,4.90
2018-07-04T23:38:22.042Z,5.17
2018-07-04T23:41:01.866Z,6.07
2018-07-04T23:43:41.677Z,5.77
2018-07-04T23:46:21.505Z,6.17
2018-07-04T23:49:01.175Z,6.57
2018-07-04T23:51:41.153Z,6.17
2018-07-04T23:54:20.747Z,5.67
2018-07-04T23:57:00.313Z,5.53
2018-07-04T23:59:39.826Z,5.93
